SWA1369 KCLE-KBNA
Flight info
| Callsign | SWA1369 |
|---|---|
| Flight time | 1h 12m |
| Altitude | 34000 |
| Route | CAVVS5 APE CUTRR PASLY5 |
| Aircraft | B738/M-SDE2E3FGHIRWXY/LB1 |
Departure
| Time | 2026-05-03 22:03 |
|---|---|
| Airport | Cleveland Hopkins International Airport (KCLE) |
Arrival
| Time | 2026-05-03 23:16 |
|---|---|
| Airport | Nashville International Airport (KBNA) |
| Time | Latitude | Longitude | Altitude | Speed | Heading |
|---|---|---|---|---|---|
| 2026-05-03 21:49 | 41.41135 | -81.84227 | 794 ft | 0 kts | 93° |
| 2026-05-03 21:54 | 41.41136 | -81.84241 | 794 ft | 4 kts | 77° |
| 2026-05-03 21:54 | 41.41134 | -81.84272 | 794 ft | 4 kts | 82° |
| 2026-05-03 21:55 | 41.41124 | -81.84298 | 794 ft | 4 kts | 20° |
| 2026-05-03 21:55 | 41.41099 | -81.84300 | 794 ft | 4 kts | 341° |
| 2026-05-03 21:55 | 41.41092 | -81.84296 | 794 ft | 0 kts | 335° |
| 2026-05-03 21:57 | 41.41121 | -81.84313 | 794 ft | 7 kts | 340° |
| 2026-05-03 21:57 | 41.41183 | -81.84326 | 794 ft | 11 kts | 358° |
| 2026-05-03 21:58 | 41.41214 | -81.84323 | 794 ft | 2 kts | 2° |
| 2026-05-03 21:58 | 41.41260 | -81.84353 | 794 ft | 10 kts | 340° |
| 2026-05-03 21:58 | 41.41324 | -81.84304 | 794 ft | 12 kts | 49° |
| 2026-05-03 21:58 | 41.41386 | -81.84209 | 794 ft | 15 kts | 49° |
| 2026-05-03 21:59 | 41.41462 | -81.84149 | 794 ft | 11 kts | 331° |
| 2026-05-03 21:59 | 41.41501 | -81.84249 | 793 ft | 14 kts | 249° |
| 2026-05-03 21:59 | 41.41418 | -81.84386 | 793 ft | 26 kts | 230° |
| 2026-05-03 21:59 | 41.41319 | -81.84529 | 793 ft | 14 kts | 207° |
| 2026-05-03 22:00 | 41.41246 | -81.84477 | 794 ft | 13 kts | 112° |
| 2026-05-03 22:00 | 41.41281 | -81.84373 | 794 ft | 13 kts | 51° |
| 2026-05-03 22:00 | 41.41339 | -81.84285 | 794 ft | 12 kts | 48° |
| 2026-05-03 22:00 | 41.41395 | -81.84199 | 794 ft | 12 kts | 50° |
| 2026-05-03 22:01 | 41.41447 | -81.84142 | 794 ft | 2 kts | 9° |
| 2026-05-03 22:01 | 41.41478 | -81.84158 | 794 ft | 6 kts | 313° |
| 2026-05-03 22:02 | 41.41499 | -81.84223 | 793 ft | 9 kts | 279° |
| 2026-05-03 22:02 | 41.41477 | -81.84293 | 792 ft | 10 kts | 229° |
| 2026-05-03 22:02 | 41.41262 | -81.84632 | 794 ft | 89 kts | 230° |
| 2026-05-03 22:02 | 41.40697 | -81.85527 | 795 ft | 161 kts | 231° |
| 2026-05-03 22:03 | 41.39927 | -81.86792 | 1286 ft | 189 kts | 231° |
| 2026-05-03 22:03 | 41.39016 | -81.88195 | 1840 ft | 210 kts | 221° |
| 2026-05-03 22:03 | 41.37744 | -81.89233 | 2640 ft | 220 kts | 206° |
| 2026-05-03 22:03 | 41.36237 | -81.89907 | 3192 ft | 239 kts | 199° |
| 2026-05-03 22:04 | 41.34648 | -81.90667 | 3978 ft | 242 kts | 208° |
| 2026-05-03 22:04 | 41.33116 | -81.91585 | 4925 ft | 244 kts | 210° |
| 2026-05-03 22:04 | 41.31572 | -81.92530 | 5790 ft | 247 kts | 209° |
| 2026-05-03 22:04 | 41.30012 | -81.93477 | 6743 ft | 247 kts | 209° |
| 2026-05-03 22:05 | 41.28422 | -81.94433 | 7524 ft | 254 kts | 208° |
| 2026-05-03 22:05 | 41.26795 | -81.95400 | 8354 ft | 259 kts | 208° |
| 2026-05-03 22:05 | 41.25131 | -81.96378 | 9130 ft | 263 kts | 208° |
| 2026-05-03 22:05 | 41.23436 | -81.97372 | 9903 ft | 268 kts | 208° |
| 2026-05-03 22:06 | 41.21707 | -81.98384 | 10620 ft | 276 kts | 208° |
| 2026-05-03 22:06 | 41.19931 | -81.99420 | 11331 ft | 281 kts | 208° |
| 2026-05-03 22:06 | 41.18115 | -82.00474 | 12016 ft | 288 kts | 208° |
| 2026-05-03 22:06 | 41.16262 | -82.01544 | 12762 ft | 291 kts | 208° |
| 2026-05-03 22:07 | 41.14390 | -82.02622 | 13472 ft | 299 kts | 208° |
| 2026-05-03 22:07 | 41.12408 | -82.03769 | 13656 ft | 322 kts | 208° |
| 2026-05-03 22:07 | 41.10308 | -82.04982 | 14117 ft | 334 kts | 208° |
| 2026-05-03 22:07 | 41.08151 | -82.06220 | 14785 ft | 339 kts | 208° |
| 2026-05-03 22:08 | 41.05972 | -82.07468 | 15516 ft | 342 kts | 208° |
| 2026-05-03 22:08 | 41.03805 | -82.08707 | 16184 ft | 346 kts | 208° |
| 2026-05-03 22:08 | 41.01581 | -82.09979 | 16833 ft | 350 kts | 208° |
| 2026-05-03 22:08 | 40.99330 | -82.11266 | 17497 ft | 353 kts | 208° |
| 2026-05-03 22:09 | 40.97062 | -82.12562 | 18149 ft | 357 kts | 208° |
| 2026-05-03 22:09 | 40.94772 | -82.13871 | 18764 ft | 360 kts | 209° |
| 2026-05-03 22:09 | 40.92464 | -82.15191 | 19360 ft | 364 kts | 209° |
| 2026-05-03 22:10 | 40.87761 | -82.17873 | 20535 ft | 371 kts | 210° |
| 2026-05-03 22:10 | 40.85377 | -82.19230 | 21111 ft | 375 kts | 210° |
| 2026-05-03 22:10 | 40.82973 | -82.20599 | 21666 ft | 378 kts | 210° |
| 2026-05-03 22:10 | 40.80546 | -82.21981 | 22203 ft | 382 kts | 210° |
| 2026-05-03 22:11 | 40.78095 | -82.23375 | 22724 ft | 385 kts | 211° |
| 2026-05-03 22:11 | 40.75624 | -82.24778 | 23245 ft | 388 kts | 211° |
| 2026-05-03 22:11 | 40.73137 | -82.26188 | 23756 ft | 390 kts | 211° |
| 2026-05-03 22:11 | 40.70630 | -82.27610 | 24202 ft | 394 kts | 211° |
| 2026-05-03 22:12 | 40.68099 | -82.29045 | 24678 ft | 397 kts | 211° |
| 2026-05-03 22:12 | 40.65556 | -82.30484 | 25167 ft | 399 kts | 211° |
| 2026-05-03 22:12 | 40.63032 | -82.31910 | 25651 ft | 401 kts | 211° |
| 2026-05-03 22:12 | 40.60466 | -82.33358 | 26127 ft | 402 kts | 212° |
| 2026-05-03 22:13 | 40.57894 | -82.34810 | 26587 ft | 403 kts | 212° |
| 2026-05-03 22:13 | 40.55319 | -82.36262 | 27131 ft | 402 kts | 212° |
| 2026-05-03 22:13 | 40.52753 | -82.37705 | 27707 ft | 399 kts | 212° |
| 2026-05-03 22:13 | 40.50206 | -82.39136 | 28304 ft | 396 kts | 212° |
| 2026-05-03 22:14 | 40.47682 | -82.40555 | 28840 ft | 394 kts | 213° |
| 2026-05-03 22:14 | 40.45167 | -82.41969 | 29369 ft | 392 kts | 213° |
| 2026-05-03 22:14 | 40.42660 | -82.43377 | 29850 ft | 391 kts | 213° |
| 2026-05-03 22:14 | 40.40164 | -82.44780 | 30354 ft | 388 kts | 213° |
| 2026-05-03 22:15 | 40.37685 | -82.46172 | 30808 ft | 387 kts | 213° |
| 2026-05-03 22:15 | 40.35210 | -82.47560 | 31265 ft | 386 kts | 213° |
| 2026-05-03 22:15 | 40.32744 | -82.48942 | 31660 ft | 385 kts | 213° |
| 2026-05-03 22:15 | 40.30288 | -82.50318 | 32084 ft | 384 kts | 213° |
| 2026-05-03 22:16 | 40.27836 | -82.51689 | 32515 ft | 382 kts | 214° |
| 2026-05-03 22:16 | 40.25403 | -82.53049 | 32900 ft | 381 kts | 214° |
| 2026-05-03 22:16 | 40.22995 | -82.54395 | 33222 ft | 381 kts | 214° |
| 2026-05-03 22:16 | 40.20563 | -82.55753 | 33580 ft | 379 kts | 214° |
| 2026-05-03 22:17 | 40.18140 | -82.57103 | 33965 ft | 378 kts | 214° |
| 2026-05-03 22:17 | 40.13338 | -82.59998 | 34078 ft | 378 kts | 219° |
| 2026-05-03 22:18 | 40.08825 | -82.63396 | 34064 ft | 369 kts | 221° |
| 2026-05-03 22:18 | 40.04429 | -82.66786 | 34067 ft | 367 kts | 221° |
| 2026-05-03 22:19 | 40.00012 | -82.70169 | 34073 ft | 369 kts | 221° |
| 2026-05-03 22:19 | 39.95563 | -82.73538 | 34070 ft | 370 kts | 221° |
| 2026-05-03 22:20 | 39.91095 | -82.76903 | 34075 ft | 370 kts | 221° |
| 2026-05-03 22:20 | 39.86664 | -82.80230 | 34071 ft | 370 kts | 221° |
| 2026-05-03 22:21 | 39.82216 | -82.83563 | 34071 ft | 368 kts | 221° |
| 2026-05-03 22:21 | 39.77790 | -82.86876 | 34077 ft | 366 kts | 221° |
| 2026-05-03 22:22 | 39.73373 | -82.90177 | 34072 ft | 365 kts | 221° |
| 2026-05-03 22:22 | 39.68999 | -82.93441 | 34077 ft | 364 kts | 221° |
| 2026-05-03 22:23 | 39.64583 | -82.96732 | 34077 ft | 363 kts | 221° |
| 2026-05-03 22:23 | 39.60233 | -82.99971 | 34083 ft | 363 kts | 221° |
| 2026-05-03 22:24 | 39.55850 | -83.03228 | 34101 ft | 363 kts | 221° |
| 2026-05-03 22:24 | 39.51466 | -83.06482 | 34091 ft | 363 kts | 221° |
| 2026-05-03 22:25 | 39.47067 | -83.09742 | 34104 ft | 364 kts | 221° |
| 2026-05-03 22:25 | 39.42661 | -83.13002 | 34108 ft | 365 kts | 221° |
| 2026-05-03 22:26 | 39.38242 | -83.16267 | 34104 ft | 366 kts | 221° |
| 2026-05-03 22:26 | 39.33809 | -83.19538 | 34098 ft | 367 kts | 221° |
| 2026-05-03 22:27 | 39.29378 | -83.22799 | 34103 ft | 367 kts | 221° |
| 2026-05-03 22:27 | 39.24976 | -83.26036 | 34101 ft | 366 kts | 221° |
| 2026-05-03 22:28 | 39.20547 | -83.29288 | 34100 ft | 366 kts | 221° |
| 2026-05-03 22:28 | 39.16116 | -83.32537 | 34099 ft | 365 kts | 221° |
| 2026-05-03 22:29 | 39.11703 | -83.35768 | 34105 ft | 364 kts | 221° |
| 2026-05-03 22:29 | 39.07301 | -83.38985 | 34103 ft | 363 kts | 221° |
| 2026-05-03 22:30 | 39.02906 | -83.42196 | 34100 ft | 363 kts | 221° |
| 2026-05-03 22:30 | 38.98515 | -83.45396 | 34096 ft | 362 kts | 221° |
| 2026-05-03 22:31 | 38.94122 | -83.48596 | 34104 ft | 362 kts | 221° |
| 2026-05-03 22:31 | 38.89759 | -83.51770 | 34099 ft | 362 kts | 221° |
| 2026-05-03 22:32 | 38.85362 | -83.54963 | 34104 ft | 363 kts | 221° |
| 2026-05-03 22:32 | 38.80959 | -83.58153 | 34107 ft | 363 kts | 220° |
| 2026-05-03 22:33 | 38.76555 | -83.61341 | 34113 ft | 364 kts | 220° |
| 2026-05-03 22:33 | 38.72140 | -83.64533 | 34119 ft | 364 kts | 220° |
| 2026-05-03 22:34 | 38.67723 | -83.67722 | 34124 ft | 365 kts | 220° |
| 2026-05-03 22:34 | 38.63299 | -83.70910 | 34122 ft | 365 kts | 220° |
| 2026-05-03 22:35 | 38.58900 | -83.74071 | 34116 ft | 365 kts | 220° |
| 2026-05-03 22:35 | 38.54475 | -83.77253 | 34121 ft | 365 kts | 220° |
| 2026-05-03 22:36 | 38.50051 | -83.80427 | 34115 ft | 364 kts | 220° |
| 2026-05-03 22:36 | 38.45635 | -83.83593 | 34124 ft | 364 kts | 220° |
| 2026-05-03 22:37 | 38.41220 | -83.86754 | 34119 ft | 364 kts | 220° |
| 2026-05-03 22:37 | 38.37546 | -83.89380 | 34120 ft | 364 kts | 220° |
| 2026-05-03 22:38 | 38.32410 | -83.93049 | 34118 ft | 363 kts | 220° |
| 2026-05-03 22:38 | 38.28738 | -83.95665 | 34119 ft | 363 kts | 220° |
| 2026-05-03 22:39 | 38.24333 | -83.98800 | 34121 ft | 363 kts | 220° |
| 2026-05-03 22:39 | 38.19926 | -84.01931 | 34120 ft | 363 kts | 220° |
| 2026-05-03 22:40 | 38.15520 | -84.05059 | 34122 ft | 363 kts | 219° |
| 2026-05-03 22:40 | 38.11109 | -84.08187 | 34122 ft | 363 kts | 219° |
| 2026-05-03 22:41 | 38.06695 | -84.11312 | 34132 ft | 363 kts | 219° |
| 2026-05-03 22:41 | 38.02286 | -84.14433 | 34140 ft | 371 kts | 219° |
| 2026-05-03 22:42 | 37.97693 | -84.17687 | 34137 ft | 385 kts | 219° |
| 2026-05-03 22:42 | 37.92923 | -84.21055 | 34136 ft | 399 kts | 219° |
| 2026-05-03 22:43 | 37.88006 | -84.24515 | 34130 ft | 408 kts | 218° |
| 2026-05-03 22:43 | 37.83021 | -84.28007 | 34117 ft | 410 kts | 218° |
| 2026-05-03 22:44 | 37.78084 | -84.31454 | 34114 ft | 401 kts | 218° |
| 2026-05-03 22:44 | 37.73198 | -84.34875 | 34127 ft | 402 kts | 218° |
| 2026-05-03 22:45 | 37.68301 | -84.38305 | 34125 ft | 403 kts | 218° |
| 2026-05-03 22:45 | 37.63390 | -84.41737 | 34127 ft | 405 kts | 218° |
| 2026-05-03 22:46 | 37.58489 | -84.45155 | 34126 ft | 405 kts | 218° |
| 2026-05-03 22:46 | 37.53545 | -84.48597 | 34128 ft | 406 kts | 218° |
| 2026-05-03 22:47 | 37.48588 | -84.52045 | 34133 ft | 407 kts | 218° |
| 2026-05-03 22:47 | 37.43635 | -84.55482 | 34130 ft | 406 kts | 218° |
| 2026-05-03 22:48 | 37.38754 | -84.58855 | 33914 ft | 393 kts | 218° |
| 2026-05-03 22:48 | 37.36372 | -84.60497 | 33649 ft | 385 kts | 218° |
| 2026-05-03 22:48 | 37.34063 | -84.62094 | 33263 ft | 382 kts | 218° |
| 2026-05-03 22:48 | 37.31746 | -84.63697 | 32907 ft | 378 kts | 218° |
| 2026-05-03 22:49 | 37.29455 | -84.65282 | 32540 ft | 375 kts | 218° |
| 2026-05-03 22:49 | 37.27173 | -84.66858 | 32172 ft | 373 kts | 218° |
| 2026-05-03 22:49 | 37.24900 | -84.68428 | 31806 ft | 370 kts | 218° |
| 2026-05-03 22:49 | 37.22648 | -84.69982 | 31442 ft | 368 kts | 218° |
| 2026-05-03 22:50 | 37.20410 | -84.71526 | 31079 ft | 366 kts | 218° |
| 2026-05-03 22:50 | 37.18181 | -84.73062 | 30705 ft | 364 kts | 218° |
| 2026-05-03 22:50 | 37.15966 | -84.74586 | 30353 ft | 361 kts | 218° |
| 2026-05-03 22:50 | 37.13769 | -84.76097 | 29990 ft | 359 kts | 218° |
| 2026-05-03 22:51 | 37.11584 | -84.77599 | 29634 ft | 357 kts | 218° |
| 2026-05-03 22:51 | 37.09415 | -84.79090 | 29273 ft | 355 kts | 218° |
| 2026-05-03 22:51 | 37.07257 | -84.80571 | 28903 ft | 353 kts | 217° |
| 2026-05-03 22:51 | 37.05125 | -84.82059 | 28542 ft | 347 kts | 221° |
| 2026-05-03 22:52 | 37.03282 | -84.83858 | 28194 ft | 335 kts | 231° |
| 2026-05-03 22:52 | 37.01693 | -84.85985 | 27467 ft | 336 kts | 239° |
| 2026-05-03 22:52 | 37.00399 | -84.88378 | 27045 ft | 332 kts | 244° |
| 2026-05-03 22:52 | 36.99213 | -84.90843 | 26678 ft | 329 kts | 245° |
| 2026-05-03 22:53 | 36.98056 | -84.93302 | 26299 ft | 327 kts | 245° |
| 2026-05-03 22:53 | 36.96908 | -84.95749 | 25935 ft | 325 kts | 245° |
| 2026-05-03 22:53 | 36.95762 | -84.98181 | 25578 ft | 323 kts | 245° |
| 2026-05-03 22:53 | 36.94620 | -85.00592 | 25227 ft | 321 kts | 245° |
| 2026-05-03 22:54 | 36.93483 | -85.02984 | 24877 ft | 319 kts | 245° |
| 2026-05-03 22:54 | 36.92352 | -85.05357 | 24535 ft | 317 kts | 245° |
| 2026-05-03 22:54 | 36.91225 | -85.07719 | 24187 ft | 315 kts | 245° |
| 2026-05-03 22:54 | 36.90106 | -85.10058 | 23848 ft | 313 kts | 245° |
| 2026-05-03 22:55 | 36.88992 | -85.12386 | 23502 ft | 311 kts | 245° |
| 2026-05-03 22:55 | 36.87887 | -85.14695 | 23169 ft | 309 kts | 244° |
| 2026-05-03 22:55 | 36.86783 | -85.16993 | 22842 ft | 307 kts | 244° |
| 2026-05-03 22:55 | 36.85687 | -85.19274 | 22506 ft | 305 kts | 244° |
| 2026-05-03 22:56 | 36.84596 | -85.21545 | 22176 ft | 304 kts | 244° |
| 2026-05-03 22:56 | 36.83512 | -85.23798 | 21841 ft | 302 kts | 244° |
| 2026-05-03 22:56 | 36.82430 | -85.26046 | 21515 ft | 301 kts | 244° |
| 2026-05-03 22:56 | 36.81355 | -85.28279 | 21164 ft | 300 kts | 244° |
| 2026-05-03 22:57 | 36.80282 | -85.30504 | 20863 ft | 298 kts | 244° |
| 2026-05-03 22:57 | 36.79227 | -85.32690 | 20534 ft | 297 kts | 244° |
| 2026-05-03 22:57 | 36.78167 | -85.34888 | 20220 ft | 295 kts | 244° |
| 2026-05-03 22:57 | 36.77112 | -85.37073 | 19898 ft | 294 kts | 244° |
| 2026-05-03 22:58 | 36.76061 | -85.39251 | 19578 ft | 293 kts | 244° |
| 2026-05-03 22:58 | 36.75011 | -85.41421 | 19262 ft | 291 kts | 244° |
| 2026-05-03 22:58 | 36.73974 | -85.43563 | 18950 ft | 290 kts | 244° |
| 2026-05-03 22:58 | 36.72938 | -85.45704 | 18638 ft | 288 kts | 244° |
| 2026-05-03 22:59 | 36.71903 | -85.47843 | 18323 ft | 287 kts | 244° |
| 2026-05-03 22:59 | 36.70873 | -85.49969 | 18000 ft | 286 kts | 244° |
| 2026-05-03 22:59 | 36.69847 | -85.52082 | 17698 ft | 285 kts | 244° |
| 2026-05-03 22:59 | 36.68824 | -85.54190 | 17386 ft | 283 kts | 244° |
| 2026-05-03 23:00 | 36.67806 | -85.56288 | 17081 ft | 283 kts | 244° |
| 2026-05-03 23:00 | 36.66789 | -85.58382 | 16768 ft | 282 kts | 244° |
| 2026-05-03 23:00 | 36.65789 | -85.60437 | 16468 ft | 281 kts | 244° |
| 2026-05-03 23:00 | 36.64778 | -85.62516 | 16154 ft | 280 kts | 244° |
| 2026-05-03 23:01 | 36.63765 | -85.64598 | 15849 ft | 282 kts | 244° |
| 2026-05-03 23:01 | 36.62744 | -85.66696 | 15546 ft | 285 kts | 244° |
| 2026-05-03 23:01 | 36.61704 | -85.68834 | 15155 ft | 293 kts | 244° |
| 2026-05-03 23:01 | 36.60642 | -85.71014 | 14818 ft | 296 kts | 244° |
| 2026-05-03 23:02 | 36.59581 | -85.73207 | 14478 ft | 295 kts | 243° |
| 2026-05-03 23:02 | 36.58510 | -85.75388 | 14140 ft | 295 kts | 243° |
| 2026-05-03 23:02 | 36.57443 | -85.77563 | 13815 ft | 294 kts | 243° |
| 2026-05-03 23:02 | 36.56377 | -85.79742 | 13467 ft | 294 kts | 243° |
| 2026-05-03 23:03 | 36.55317 | -85.81955 | 12952 ft | 300 kts | 244° |
| 2026-05-03 23:03 | 36.54255 | -85.84198 | 12556 ft | 301 kts | 244° |
| 2026-05-03 23:03 | 36.53194 | -85.86436 | 12217 ft | 300 kts | 244° |
| 2026-05-03 23:03 | 36.52134 | -85.88668 | 11883 ft | 299 kts | 244° |
| 2026-05-03 23:04 | 36.51078 | -85.90890 | 11562 ft | 297 kts | 243° |
| 2026-05-03 23:04 | 36.50028 | -85.93096 | 11244 ft | 296 kts | 243° |
| 2026-05-03 23:04 | 36.48981 | -85.95291 | 10922 ft | 294 kts | 242° |
| 2026-05-03 23:04 | 36.47938 | -85.97477 | 10616 ft | 293 kts | 242° |
| 2026-05-03 23:05 | 36.46900 | -85.99653 | 10289 ft | 292 kts | 242° |
| 2026-05-03 23:05 | 36.45875 | -86.01798 | 10152 ft | 285 kts | 242° |
| 2026-05-03 23:05 | 36.44878 | -86.03890 | 10014 ft | 277 kts | 241° |
| 2026-05-03 23:05 | 36.43898 | -86.05945 | 9724 ft | 276 kts | 241° |
| 2026-05-03 23:06 | 36.42929 | -86.07962 | 9459 ft | 275 kts | 240° |
| 2026-05-03 23:06 | 36.41953 | -86.09998 | 9180 ft | 274 kts | 240° |
| 2026-05-03 23:06 | 36.40983 | -86.12021 | 8909 ft | 272 kts | 240° |
| 2026-05-03 23:06 | 36.40008 | -86.14057 | 8619 ft | 271 kts | 240° |
| 2026-05-03 23:07 | 36.39043 | -86.16066 | 8335 ft | 270 kts | 240° |
| 2026-05-03 23:07 | 36.38129 | -86.18059 | 8051 ft | 269 kts | 244° |
| 2026-05-03 23:07 | 36.37317 | -86.20136 | 7781 ft | 267 kts | 245° |
| 2026-05-03 23:07 | 36.36532 | -86.22221 | 7499 ft | 266 kts | 245° |
| 2026-05-03 23:08 | 36.35751 | -86.24283 | 7217 ft | 261 kts | 245° |
| 2026-05-03 23:08 | 36.34981 | -86.26299 | 6941 ft | 256 kts | 245° |
| 2026-05-03 23:08 | 36.34226 | -86.28261 | 6672 ft | 250 kts | 245° |
| 2026-05-03 23:08 | 36.33484 | -86.30180 | 6409 ft | 244 kts | 245° |
| 2026-05-03 23:09 | 36.32752 | -86.32068 | 6162 ft | 241 kts | 245° |
| 2026-05-03 23:09 | 36.32037 | -86.33940 | 5927 ft | 240 kts | 248° |
| 2026-05-03 23:09 | 36.31692 | -86.35956 | 5757 ft | 238 kts | 263° |
| 2026-05-03 23:09 | 36.31533 | -86.37977 | 5543 ft | 234 kts | 264° |
| 2026-05-03 23:10 | 36.31401 | -86.39984 | 5327 ft | 234 kts | 265° |
| 2026-05-03 23:10 | 36.31279 | -86.42015 | 5107 ft | 238 kts | 265° |
| 2026-05-03 23:10 | 36.31156 | -86.44050 | 4900 ft | 240 kts | 265° |
| 2026-05-03 23:10 | 36.31029 | -86.46142 | 4671 ft | 240 kts | 265° |
| 2026-05-03 23:11 | 36.30899 | -86.48168 | 4462 ft | 238 kts | 265° |
| 2026-05-03 23:11 | 36.30764 | -86.50205 | 4254 ft | 236 kts | 265° |
| 2026-05-03 23:11 | 36.30624 | -86.52231 | 4083 ft | 236 kts | 264° |
| 2026-05-03 23:11 | 36.30272 | -86.54209 | 3978 ft | 237 kts | 240° |
| 2026-05-03 23:12 | 36.29220 | -86.55754 | 3802 ft | 233 kts | 227° |
| 2026-05-03 23:12 | 36.28118 | -86.57215 | 3377 ft | 232 kts | 229° |
| 2026-05-03 23:12 | 36.27036 | -86.58714 | 3111 ft | 233 kts | 229° |
| 2026-05-03 23:12 | 36.25953 | -86.60242 | 3029 ft | 237 kts | 230° |
| 2026-05-03 23:13 | 36.24704 | -86.61517 | 2973 ft | 231 kts | 204° |
| 2026-05-03 23:13 | 36.23176 | -86.62018 | 2580 ft | 224 kts | 194° |
| 2026-05-03 23:13 | 36.21736 | -86.62530 | 2300 ft | 209 kts | 201° |
| 2026-05-03 23:13 | 36.20400 | -86.63097 | 2008 ft | 196 kts | 200° |
| 2026-05-03 23:14 | 36.19142 | -86.63604 | 1768 ft | 184 kts | 200° |
| 2026-05-03 23:14 | 36.18005 | -86.64061 | 1534 ft | 169 kts | 200° |
| 2026-05-03 23:14 | 36.16970 | -86.64474 | 1337 ft | 156 kts | 200° |
| 2026-05-03 23:14 | 36.15940 | -86.64892 | 1156 ft | 147 kts | 200° |
| 2026-05-03 23:15 | 36.14983 | -86.65286 | 966 ft | 145 kts | 200° |
| 2026-05-03 23:15 | 36.14007 | -86.65673 | 755 ft | 152 kts | 200° |
| 2026-05-03 23:15 | 36.12992 | -86.66080 | 570 ft | 147 kts | 199° |
| 2026-05-03 23:15 | 36.12147 | -86.66418 | 574 ft | 100 kts | 198° |
| 2026-05-03 23:16 | 36.11734 | -86.66584 | 584 ft | 44 kts | 198° |
| 2026-05-03 23:16 | 36.11475 | -86.66689 | 589 ft | 25 kts | 198° |
| 2026-05-03 23:16 | 36.11385 | -86.66789 | 591 ft | 18 kts | 283° |
| 2026-05-03 23:16 | 36.11450 | -86.66842 | 591 ft | 11 kts | 21° |
| 2026-05-03 23:17 | 36.11527 | -86.66809 | 589 ft | 13 kts | 19° |
| 2026-05-03 23:17 | 36.11617 | -86.66773 | 586 ft | 14 kts | 18° |
| 2026-05-03 23:17 | 36.11720 | -86.66732 | 585 ft | 17 kts | 18° |
| 2026-05-03 23:17 | 36.11847 | -86.66681 | 580 ft | 21 kts | 18° |
| 2026-05-03 23:18 | 36.11990 | -86.66623 | 576 ft | 22 kts | 19° |
| 2026-05-03 23:18 | 36.12142 | -86.66563 | 570 ft | 24 kts | 17° |
| 2026-05-03 23:18 | 36.12271 | -86.66546 | 568 ft | 18 kts | 316° |
| 2026-05-03 23:18 | 36.12317 | -86.66684 | 569 ft | 17 kts | 288° |
| 2026-05-03 23:19 | 36.12355 | -86.66819 | 570 ft | 16 kts | 296° |
| 2026-05-03 23:19 | 36.12424 | -86.66924 | 570 ft | 16 kts | 313° |
| 2026-05-03 23:19 | 36.12518 | -86.66932 | 571 ft | 15 kts | 29° |
| 2026-05-03 23:19 | 36.12610 | -86.66868 | 570 ft | 15 kts | 30° |
| 2026-05-03 23:20 | 36.12700 | -86.66790 | 568 ft | 16 kts | 40° |
| 2026-05-03 23:20 | 36.12798 | -86.66736 | 568 ft | 16 kts | 352° |
| 2026-05-03 23:20 | 36.12841 | -86.66751 | 568 ft | 0 kts | 340° |
| 2026-05-03 23:22 | 36.12844 | -86.66816 | 568 ft | 8 kts | 257° |
| 2026-05-03 23:22 | 36.12832 | -86.66871 | 568 ft | 6 kts | 256° |